Time;durP1;ratioP1;P1;durP2;ratioP2;P2;SDS_P1;SDS_P2;PMS_P1;PMS_P2;Temp;Humidity;BMP_temperature;BMP_pressure;BME280_temperature;BME280_humidity;BME280_pressure;Samples;Min_cycle;Max_cycle;Signal;HPM_P1;HPM_P2
2021/05/06 00:01:03;;;;;;;4.13;1.98;;;;;;;;;;5032677;28;20696;-81
2021/05/06 00:33:02;;;;;;;3.10;1.33;;;;;;;;;;5040203;28;20204;-78
2021/05/06 00:38:51;;;;;;;1.33;1.20;;;;;;;;;;5032668;28;20637;-82
2021/05/06 00:54:59;;;;;;;3.28;1.45;;;;;;;;;;5032757;28;20252;-80
2021/05/06 01:13:28;;;;;;;2.10;1.90;;;;;;;;;;5038984;28;20173;-81
2021/05/06 01:15:54;;;;;;;1.60;1.30;;;;;;;;;;5032328;28;20299;-82
2021/05/06 01:18:20;;;;;;;2.45;2.25;;;;;;;;;;5030788;28;20206;-79
2021/05/06 01:20:49;;;;;;;2.05;1.65;;;;;;;;;;5032801;28;20175;-84
2021/05/06 01:23:19;;;;;;;1.70;1.60;;;;;;;;;;5036121;28;20183;-82
2021/05/06 01:25:53;;;;;;;2.35;1.70;;;;;;;;;;5036059;28;20256;-83
2021/05/06 01:28:21;;;;;;;1.75;1.42;;;;;;;;;;5036255;28;20179;-80
2021/05/06 01:31:08;;;;;;;2.08;1.85;;;;;;;;;;5036057;28;20523;-81
2021/05/06 01:34:04;;;;;;;2.10;1.50;;;;;;;;;;5035734;28;20158;-81
2021/05/06 01:36:35;;;;;;;1.60;1.50;;;;;;;;;;5035454;28;20193;-83
2021/05/06 01:39:31;;;;;;;2.05;1.65;;;;;;;;;;5035276;28;20172;-82
2021/05/06 01:45:11;;;;;;;3.50;1.80;;;;;;;;;;5042080;28;20206;-83
2021/05/06 02:00:41;;;;;;;1.73;1.63;;;;;;;;;;5035290;28;20172;-82
2021/05/06 02:03:07;;;;;;;2.30;1.45;;;;;;;;;;5035185;28;20555;-80
2021/05/06 02:05:33;;;;;;;3.17;1.50;;;;;;;;;;5034626;28;20175;-79
2021/05/06 02:07:59;;;;;;;2.67;1.43;;;;;;;;;;5034870;28;20575;-80
2021/05/06 02:10:27;;;;;;;1.60;1.50;;;;;;;;;;5033449;28;20738;-81
2021/05/06 02:12:54;;;;;;;1.50;1.30;;;;;;;;;;5034488;28;20168;-79
2021/05/06 02:17:46;;;;;;;3.35;1.63;;;;;;;;;;5034798;28;20506;-82
2021/05/06 02:20:14;;;;;;;2.25;1.88;;;;;;;;;;5034884;28;20632;-79
2021/05/06 02:22:40;;;;;;;2.80;1.77;;;;;;;;;;5035500;28;20175;-80
2021/05/06 02:25:06;;;;;;;5.55;2.28;;;;;;;;;;5036663;28;20187;-82
2021/05/06 02:27:32;;;;;;;2.92;1.80;;;;;;;;;;5034810;28;20231;-81
2021/05/06 02:29:58;;;;;;;2.58;1.98;;;;;;;;;;5034544;28;20180;-81
2021/05/06 02:32:28;;;;;;;4.35;1.83;;;;;;;;;;5034380;28;20651;-78
2021/05/06 02:34:55;;;;;;;5.68;2.00;;;;;;;;;;5033798;28;20232;-80
2021/05/06 02:37:21;;;;;;;2.58;1.80;;;;;;;;;;5034269;28;20176;-83
2021/05/06 02:39:47;;;;;;;2.78;1.85;;;;;;;;;;5034094;28;20178;-78
2021/05/06 02:42:13;;;;;;;2.95;1.58;;;;;;;;;;5033995;28;20554;-81
2021/05/06 02:44:40;;;;;;;2.00;1.80;;;;;;;;;;5034136;28;20623;-81
2021/05/06 02:47:06;;;;;;;2.05;1.60;;;;;;;;;;5034124;28;20520;-82
2021/05/06 02:49:33;;;;;;;3.33;1.48;;;;;;;;;;5033768;28;20271;-79
2021/05/06 02:52:05;;;;;;;7.65;2.00;;;;;;;;;;5034165;28;20179;-80
2021/05/06 02:54:37;;;;;;;2.22;1.52;;;;;;;;;;5033871;28;20201;-81
2021/05/06 02:58:09;;;;;;;3.22;1.73;;;;;;;;;;5033952;28;20161;-81
2021/05/06 03:02:50;;;;;;;4.55;2.65;;;;;;;;;;5033804;28;20721;-79
2021/05/06 03:05:21;;;;;;;3.90;1.65;;;;;;;;;;5033602;28;20172;-80
2021/05/06 03:07:55;;;;;;;2.65;1.92;;;;;;;;;;5033655;28;20169;-79
2021/05/06 03:13:09;;;;;;;2.23;2.03;;;;;;;;;;5033659;28;20192;-84
2021/05/06 03:23:39;;;;;;;3.15;1.65;;;;;;;;;;5033525;28;20664;-83
2021/05/06 03:26:05;;;;;;;3.17;2.53;;;;;;;;;;5038567;28;20172;-79
2021/05/06 03:28:39;;;;;;;3.42;2.20;;;;;;;;;;5050501;28;20180;-81
2021/05/06 03:42:10;;;;;;;3.35;1.80;;;;;;;;;;5032868;28;20175;-82
2021/05/06 03:44:51;;;;;;;2.08;1.90;;;;;;;;;;5032489;28;20167;-82
2021/05/06 03:50:18;;;;;;;1.95;1.83;;;;;;;;;;5033105;28;20172;-83
2021/05/06 04:17:40;;;;;;;1.98;1.83;;;;;;;;;;5040024;28;20645;-78
2021/05/06 04:36:08;;;;;;;7.40;2.08;;;;;;;;;;5032350;28;20244;-80
2021/05/06 04:38:34;;;;;;;4.20;2.17;;;;;;;;;;5032446;28;20163;-80
2021/05/06 04:41:16;;;;;;;2.10;1.90;;;;;;;;;;5032714;28;20181;-80
2021/05/06 05:20:19;;;;;;;2.67;1.88;;;;;;;;;;5039526;28;20279;-78
2021/05/06 05:25:51;;;;;;;3.13;2.10;;;;;;;;;;5036606;28;20176;-80
2021/05/06 05:28:17;;;;;;;2.47;2.10;;;;;;;;;;5036393;28;20169;-79
2021/05/06 05:30:43;;;;;;;4.40;2.17;;;;;;;;;;5036692;28;20260;-81
2021/05/06 05:33:14;;;;;;;2.53;2.15;;;;;;;;;;5037258;28;20516;-82
2021/05/06 05:54:33;;;;;;;3.25;1.60;;;;;;;;;;5043532;28;20535;-79
2021/05/06 05:54:50;;;;;;;1.90;1.65;;;;;;;;;;5044204;28;20330;-80
2021/05/06 05:57:19;;;;;;;2.63;1.70;;;;;;;;;;5042094;28;20647;-80
2021/05/06 05:59:45;;;;;;;3.60;2.00;;;;;;;;;;5041563;28;20431;-81
2021/05/06 06:02:11;;;;;;;6.07;2.35;;;;;;;;;;5042060;28;20174;-79
2021/05/06 06:04:37;;;;;;;4.45;2.63;;;;;;;;;;5041826;28;20176;-79
2021/05/06 06:07:03;;;;;;;2.13;1.73;;;;;;;;;;5041497;28;20194;-81
2021/05/06 06:09:29;;;;;;;3.80;2.33;;;;;;;;;;5041919;28;20443;-78
2021/05/06 06:11:55;;;;;;;2.67;2.10;;;;;;;;;;5040291;28;20578;-78
2021/05/06 06:14:35;;;;;;;2.10;1.75;;;;;;;;;;5037896;28;20331;-81
2021/05/06 06:17:01;;;;;;;2.78;2.03;;;;;;;;;;5036410;28;20235;-82
2021/05/06 06:19:33;;;;;;;1.90;1.63;;;;;;;;;;5036606;28;20156;-83
2021/05/06 06:22:09;;;;;;;4.20;2.20;;;;;;;;;;5037001;28;20510;-81
2021/05/06 06:24:35;;;;;;;3.45;2.50;;;;;;;;;;5033777;28;20182;-79
2021/05/06 06:27:01;;;;;;;3.72;1.90;;;;;;;;;;5035373;28;20530;-79
2021/05/06 06:29:30;;;;;;;3.47;2.07;;;;;;;;;;5035289;28;20259;-79
2021/05/06 06:31:57;;;;;;;2.55;1.85;;;;;;;;;;5035543;28;20408;-78
2021/05/06 06:34:23;;;;;;;2.75;1.98;;;;;;;;;;5035847;28;20285;-80
2021/05/06 06:36:49;;;;;;;4.60;2.30;;;;;;;;;;5034448;28;20169;-86
2021/05/06 06:42:20;;;;;;;4.10;1.92;;;;;;;;;;5037765;28;20187;-88
2021/05/06 06:44:47;;;;;;;2.90;1.70;;;;;;;;;;5042875;28;20571;-88
2021/05/06 06:47:13;;;;;;;3.67;2.27;;;;;;;;;;5033925;28;20182;-84
2021/05/06 06:49:40;;;;;;;4.05;1.88;;;;;;;;;;5033180;28;20416;-86
2021/05/06 06:52:07;;;;;;;4.23;2.10;;;;;;;;;;5032500;28;20300;-82
2021/05/06 06:57:37;;;;;;;2.70;2.17;;;;;;;;;;5033574;28;20819;-82
2021/05/06 07:00:03;;;;;;;5.40;2.20;;;;;;;;;;5032673;28;20419;-82
2021/05/06 07:02:30;;;;;;;4.57;1.80;;;;;;;;;;5035626;28;20655;-79
2021/05/06 07:04:56;;;;;;;4.67;1.87;;;;;;;;;;5046603;28;20196;-85
2021/05/06 07:07:22;;;;;;;5.33;2.23;;;;;;;;;;5045272;28;20884;-85
2021/05/06 07:09:48;;;;;;;3.80;1.77;;;;;;;;;;5034498;28;20414;-81
2021/05/06 07:12:14;;;;;;;2.77;1.80;;;;;;;;;;5033899;28;20412;-80
2021/05/06 07:14:40;;;;;;;2.50;1.87;;;;;;;;;;5037394;28;20513;-82
2021/05/06 07:17:06;;;;;;;4.63;2.50;;;;;;;;;;5037170;28;20574;-86
2021/05/06 07:19:32;;;;;;;3.00;2.27;;;;;;;;;;5037475;28;20416;-87
2021/05/06 07:21:58;;;;;;;4.80;2.23;;;;;;;;;;5037262;28;20439;-86
2021/05/06 07:27:28;;;;;;;4.50;2.20;;;;;;;;;;5034167;28;20748;-84
2021/05/06 07:29:54;;;;;;;3.57;1.57;;;;;;;;;;5034063;28;20422;-83
2021/05/06 07:32:19;;;;;;;2.33;1.87;;;;;;;;;;5033079;28;20810;-81
2021/05/06 07:34:45;;;;;;;3.37;2.07;;;;;;;;;;5032644;28;20479;-86
2021/05/06 07:37:13;;;;;;;2.73;1.37;;;;;;;;;;5034478;28;20422;-82
2021/05/06 07:42:43;;;;;;;2.77;2.03;;;;;;;;;;5035177;28;20435;-81
2021/05/06 07:45:10;;;;;;;3.80;1.73;;;;;;;;;;5035153;28;20412;-87
2021/05/06 07:47:36;;;;;;;5.23;2.13;;;;;;;;;;5036125;28;20418;-80
2021/05/06 07:50:02;;;;;;;4.73;1.90;;;;;;;;;;5032806;28;20412;-81
2021/05/06 07:52:29;;;;;;;1.97;1.63;;;;;;;;;;5032562;28;20447;-81
2021/05/06 07:57:59;;;;;;;3.67;2.10;;;;;;;;;;5033241;28;20594;-78
2021/05/06 08:00:26;;;;;;;4.73;2.70;;;;;;;;;;5036382;28;20403;-82
2021/05/06 08:02:52;;;;;;;4.03;1.80;;;;;;;;;;5035752;28;20580;-77
2021/05/06 08:05:18;;;;;;;2.57;1.60;;;;;;;;;;5038605;28;20401;-80
2021/05/06 08:07:44;;;;;;;3.20;2.13;;;;;;;;;;5035469;28;20423;-83
2021/05/06 08:10:11;;;;;;;2.17;1.80;;;;;;;;;;5032890;28;20404;-78
2021/05/06 08:12:37;;;;;;;4.07;1.80;;;;;;;;;;5030613;28;20425;-81
2021/05/06 08:15:07;;;;;;;3.43;1.93;;;;;;;;;;5032789;28;20465;-80
2021/05/06 08:17:33;;;;;;;7.33;2.30;;;;;;;;;;5033207;28;20446;-82
2021/05/06 08:20:02;;;;;;;1.77;1.67;;;;;;;;;;5036267;28;20416;-83
2021/05/06 08:22:28;;;;;;;3.60;1.80;;;;;;;;;;5033322;28;20429;-82
2021/05/06 08:27:58;;;;;;;3.47;1.90;;;;;;;;;;5035167;28;20424;-84
2021/05/06 08:30:24;;;;;;;3.33;1.80;;;;;;;;;;5034418;28;20903;-81
2021/05/06 08:32:50;;;;;;;3.90;1.93;;;;;;;;;;5034129;28;20418;-83
2021/05/06 08:35:16;;;;;;;2.40;1.87;;;;;;;;;;5033687;28;20497;-81
2021/05/06 08:37:42;;;;;;;3.07;1.73;;;;;;;;;;5033785;28;20468;-83
2021/05/06 08:43:12;;;;;;;3.23;2.20;;;;;;;;;;5033512;28;20428;-83
2021/05/06 08:45:47;;;;;;;1.50;1.23;;;;;;;;;;5032303;28;20484;-81
2021/05/06 08:48:15;;;;;;;5.93;2.10;;;;;;;;;;5032739;28;20788;-83
2021/05/06 08:50:42;;;;;;;7.77;1.90;;;;;;;;;;5032934;28;20424;-80
2021/05/06 08:53:09;;;;;;;3.90;1.90;;;;;;;;;;5032110;28;20432;-81
2021/05/06 08:55:35;;;;;;;4.23;2.00;;;;;;;;;;5031901;28;20475;-79
2021/05/06 08:58:01;;;;;;;3.27;2.10;;;;;;;;;;5034986;28;20479;-80
2021/05/06 09:00:36;;;;;;;3.03;1.60;;;;;;;;;;5033816;28;20418;-80
2021/05/06 09:03:06;;;;;;;1.80;1.70;;;;;;;;;;5032034;28;20424;-80
2021/05/06 09:05:40;;;;;;;2.57;1.87;;;;;;;;;;5032193;28;20433;-79
2021/05/06 09:08:08;;;;;;;3.33;2.17;;;;;;;;;;5032577;28;20460;-81
2021/05/06 09:10:42;;;;;;;3.30;1.80;;;;;;;;;;5033294;28;20422;-82
2021/05/06 09:13:47;;;;;;;5.30;2.47;;;;;;;;;;5032884;28;20433;-81
2021/05/06 09:16:22;;;;;;;7.47;2.20;;;;;;;;;;5033235;28;20479;-81
2021/05/06 09:18:52;;;;;;;2.20;1.80;;;;;;;;;;5033487;28;20770;-80
2021/05/06 09:21:42;;;;;;;2.07;1.67;;;;;;;;;;5033365;28;21055;-83
2021/05/06 09:24:20;;;;;;;3.40;2.00;;;;;;;;;;5033269;28;20434;-83
2021/05/06 09:26:52;;;;;;;3.97;2.10;;;;;;;;;;5034038;28;20421;-84
2021/05/06 09:29:36;;;;;;;5.33;2.47;;;;;;;;;;5033573;28;20408;-81
2021/05/06 09:32:18;;;;;;;5.20;2.43;;;;;;;;;;5030594;28;20412;-84
2021/05/06 09:34:44;;;;;;;2.00;1.73;;;;;;;;;;5030978;28;21183;-82
2021/05/06 09:37:33;;;;;;;7.10;2.33;;;;;;;;;;5030401;28;20456;-78
2021/05/06 09:40:00;;;;;;;5.37;2.90;;;;;;;;;;5029623;28;20831;-83
2021/05/06 09:42:49;;;;;;;3.70;2.30;;;;;;;;;;5033497;28;20418;-82
2021/05/06 09:45:26;;;;;;;4.87;2.30;;;;;;;;;;5035858;28;20798;-83
2021/05/06 09:48:10;;;;;;;5.03;2.83;;;;;;;;;;5037949;28;20412;-83
2021/05/06 09:50:40;;;;;;;4.93;2.30;;;;;;;;;;5036327;28;20412;-81
2021/05/06 09:53:17;;;;;;;3.77;2.67;;;;;;;;;;5034270;28;20815;-77
2021/05/06 09:55:52;;;;;;;3.07;2.70;;;;;;;;;;5031972;28;20953;-80
2021/05/06 09:58:31;;;;;;;2.87;2.13;;;;;;;;;;5034072;28;20451;-79
2021/05/06 10:00:57;;;;;;;4.13;1.87;;;;;;;;;;5033904;28;20454;-78
2021/05/06 10:03:30;;;;;;;2.50;1.97;;;;;;;;;;5031287;28;20991;-77
2021/05/06 10:06:10;;;;;;;4.30;1.93;;;;;;;;;;5033734;28;20421;-77
2021/05/06 10:11:39;;;;;;;3.20;2.00;;;;;;;;;;5033347;28;20426;-85
2021/05/06 10:14:05;;;;;;;2.27;2.07;;;;;;;;;;5031842;28;20439;-80
2021/05/06 10:16:32;;;;;;;1.80;1.60;;;;;;;;;;5033001;28;20469;-76
2021/05/06 10:18:58;;;;;;;3.37;1.60;;;;;;;;;;5031917;28;20416;-76
2021/05/06 10:21:24;;;;;;;2.70;1.90;;;;;;;;;;5032599;28;20507;-78
2021/05/06 10:26:53;;;;;;;3.17;1.83;;;;;;;;;;5031818;28;20427;-79
2021/05/06 10:29:19;;;;;;;2.50;2.10;;;;;;;;;;5032179;28;20520;-77
2021/05/06 10:31:45;;;;;;;3.17;2.33;;;;;;;;;;5032382;28;20423;-78
2021/05/06 10:34:12;;;;;;;3.00;2.80;;;;;;;;;;5032455;28;20470;-77
2021/05/06 10:36:39;;;;;;;3.23;1.80;;;;;;;;;;5033572;28;20773;-78
2021/05/06 10:42:29;;;;;;;3.10;1.70;;;;;;;;;;5033478;28;20450;-78
2021/05/06 10:44:55;;;;;;;5.43;1.97;;;;;;;;;;5034100;28;20786;-76
2021/05/06 10:47:40;;;;;;;2.13;1.40;;;;;;;;;;5034230;28;20455;-78
2021/05/06 10:50:16;;;;;;;1.97;1.67;;;;;;;;;;5038404;28;20474;-79
2021/05/06 10:52:43;;;;;;;5.07;1.90;;;;;;;;;;5040020;28;20449;-78
2021/05/06 10:58:29;;;;;;;1.00;1.00;;;;;;;;;;5033160;28;20424;-80
2021/05/06 11:01:05;;;;;;;3.27;1.23;;;;;;;;;;5031755;28;20505;-79
2021/05/06 11:03:32;;;;;;;1.90;1.00;;;;;;;;;;5034072;28;20412;-78
2021/05/06 11:05:58;;;;;;;2.47;1.43;;;;;;;;;;5033639;28;20439;-78
2021/05/06 11:08:24;;;;;;;2.20;1.43;;;;;;;;;;5033664;28;20451;-78
2021/05/06 11:14:03;;;;;;;1.63;0.90;;;;;;;;;;5031700;28;20482;-81
2021/05/06 11:16:29;;;;;;;2.73;1.23;;;;;;;;;;5031591;28;20466;-78
2021/05/06 11:18:57;;;;;;;1.20;1.00;;;;;;;;;;5032190;28;20496;-80
2021/05/06 11:21:36;;;;;;;1.43;1.00;;;;;;;;;;5031396;28;20903;-78
2021/05/06 11:24:27;;;;;;;2.20;0.87;;;;;;;;;;5033227;28;20416;-78
2021/05/06 11:27:23;;;;;;;2.20;1.30;;;;;;;;;;5032574;28;20426;-79
2021/05/06 11:29:48;;;;;;;1.00;0.80;;;;;;;;;;5032229;28;20449;-78
2021/05/06 11:32:26;;;;;;;0.53;0.40;;;;;;;;;;5032250;28;20936;-78
2021/05/06 11:34:53;;;;;;;1.20;1.10;;;;;;;;;;5031382;28;20484;-80
2021/05/06 11:37:29;;;;;;;1.70;0.80;;;;;;;;;;5032758;28;20437;-83
2021/05/06 11:40:00;;;;;;;0.70;0.63;;;;;;;;;;5032012;28;20418;-79
2021/05/06 11:42:27;;;;;;;0.90;0.80;;;;;;;;;;5032631;28;20495;-78
2021/05/06 11:45:11;;;;;;;2.23;0.90;;;;;;;;;;5032206;28;20461;-80
2021/05/06 11:47:37;;;;;;;0.70;0.70;;;;;;;;;;5032418;28;20429;-78
2021/05/06 11:50:20;;;;;;;1.30;0.77;;;;;;;;;;5031817;28;20438;-76
2021/05/06 11:52:46;;;;;;;1.27;1.00;;;;;;;;;;5032222;28;20427;-77
2021/05/06 11:55:31;;;;;;;1.30;1.10;;;;;;;;;;5032339;28;20585;-79
2021/05/06 11:57:57;;;;;;;1.30;1.00;;;;;;;;;;5032389;28;20901;-81
2021/05/06 12:00:28;;;;;;;1.03;0.90;;;;;;;;;;5031967;28;20742;-81
2021/05/06 12:02:55;;;;;;;1.33;0.77;;;;;;;;;;5032161;28;20421;-79
2021/05/06 12:05:23;;;;;;;3.67;0.93;;;;;;;;;;5031364;28;20735;-82
2021/05/06 12:08:01;;;;;;;1.57;1.10;;;;;;;;;;5031860;28;20418;-75
2021/05/06 12:10:27;;;;;;;2.50;1.10;;;;;;;;;;5031742;28;20936;-77
2021/05/06 12:13:03;;;;;;;1.17;0.70;;;;;;;;;;5032233;28;20468;-80
2021/05/06 12:15:29;;;;;;;1.10;1.00;;;;;;;;;;5031702;28;20963;-83
2021/05/06 12:18:15;;;;;;;0.97;0.97;;;;;;;;;;5031765;28;20414;-77
2021/05/06 12:20:47;;;;;;;2.30;1.50;;;;;;;;;;5031238;28;20425;-78
2021/05/06 12:23:13;;;;;;;1.00;0.83;;;;;;;;;;5031579;28;20417;-79
2021/05/06 12:25:39;;;;;;;1.40;1.13;;;;;;;;;;5031242;28;20407;-78
2021/05/06 12:28:05;;;;;;;1.47;0.80;;;;;;;;;;5031619;28;20574;-79
2021/05/06 12:30:31;;;;;;;1.17;1.07;;;;;;;;;;5031522;28;20870;-79
2021/05/06 12:32:57;;;;;;;1.10;1.00;;;;;;;;;;5031326;28;20416;-81
2021/05/06 12:35:23;;;;;;;0.80;0.80;;;;;;;;;;5031049;28;20532;-78
2021/05/06 12:37:55;;;;;;;1.03;0.90;;;;;;;;;;5031640;28;20456;-79
2021/05/06 12:40:22;;;;;;;1.33;1.10;;;;;;;;;;5030118;28;20445;-78
2021/05/06 12:42:49;;;;;;;1.70;1.10;;;;;;;;;;5032005;28;20786;-76
2021/05/06 12:45:16;;;;;;;1.20;1.10;;;;;;;;;;5038622;28;20467;-77
2021/05/06 12:47:46;;;;;;;1.00;0.90;;;;;;;;;;5036310;28;20417;-80
2021/05/06 12:50:13;;;;;;;4.00;1.20;;;;;;;;;;5030777;28;20422;-77
2021/05/06 12:52:40;;;;;;;1.03;1.00;;;;;;;;;;5031848;28;20544;-81
2021/05/06 12:55:27;;;;;;;1.30;1.20;;;;;;;;;;5031393;28;20468;-78
2021/05/06 12:58:08;;;;;;;1.67;1.20;;;;;;;;;;5031195;28;20441;-81
2021/05/06 13:00:36;;;;;;;1.47;1.37;;;;;;;;;;5032039;28;20425;-80
2021/05/06 13:03:10;;;;;;;1.90;1.13;;;;;;;;;;5031555;28;20420;-78
2021/05/06 13:05:37;;;;;;;3.07;1.23;;;;;;;;;;5031174;28;20424;-81
2021/05/06 13:08:04;;;;;;;1.93;1.20;;;;;;;;;;5029694;28;20963;-79
2021/05/06 13:10:50;;;;;;;1.30;1.20;;;;;;;;;;5031210;28;20424;-77
2021/05/06 13:13:55;;;;;;;1.77;1.43;;;;;;;;;;5030747;28;20435;-77
2021/05/06 13:16:42;;;;;;;4.33;2.20;;;;;;;;;;5008408;28;20483;-77
2021/05/06 13:19:12;;;;;;;1.47;1.37;;;;;;;;;;5012144;28;20434;-76
2021/05/06 13:21:46;;;;;;;1.77;1.40;;;;;;;;;;5012478;28;20464;-77
2021/05/06 13:24:12;;;;;;;1.40;1.30;;;;;;;;;;5012558;28;20421;-80
2021/05/06 13:26:39;;;;;;;1.10;1.00;;;;;;;;;;5012517;28;20429;-78
2021/05/06 13:29:12;;;;;;;2.93;2.00;;;;;;;;;;5011706;28;20427;-76
2021/05/06 13:31:39;;;;;;;1.97;1.83;;;;;;;;;;5011488;28;20421;-76
2021/05/06 13:34:13;;;;;;;3.80;1.70;;;;;;;;;;5010912;28;20953;-80
2021/05/06 13:36:39;;;;;;;2.30;2.20;;;;;;;;;;5011269;28;20475;-76
2021/05/06 13:39:06;;;;;;;2.70;1.93;;;;;;;;;;5011075;28;20757;-78
2021/05/06 13:41:36;;;;;;;2.70;1.93;;;;;;;;;;5011446;28;21675;-75
2021/05/06 13:44:04;;;;;;;2.00;1.80;;;;;;;;;;5011431;28;20595;-77
2021/05/06 13:46:30;;;;;;;2.47;2.27;;;;;;;;;;5017002;28;20438;-76
2021/05/06 13:48:58;;;;;;;3.33;1.83;;;;;;;;;;5033593;28;20438;-78
2021/05/06 13:51:25;;;;;;;2.33;2.13;;;;;;;;;;5033748;28;20421;-76
2021/05/06 13:53:52;;;;;;;2.07;1.97;;;;;;;;;;5033794;28;20802;-75
2021/05/06 13:56:18;;;;;;;2.63;1.90;;;;;;;;;;5033136;28;20533;-77
2021/05/06 13:58:44;;;;;;;1.50;1.40;;;;;;;;;;5033159;28;20423;-76
2021/05/06 14:01:11;;;;;;;2.60;1.77;;;;;;;;;;5033176;28;20479;-79
2021/05/06 14:03:37;;;;;;;1.73;1.47;;;;;;;;;;5032940;28;20412;-77
2021/05/06 14:06:04;;;;;;;1.63;1.50;;;;;;;;;;5033120;28;20413;-76
2021/05/06 14:08:30;;;;;;;3.00;1.60;;;;;;;;;;5032531;28;20448;-76
2021/05/06 14:10:57;;;;;;;4.17;1.50;;;;;;;;;;5033321;28;20427;-75
2021/05/06 14:13:23;;;;;;;3.83;1.47;;;;;;;;;;5033352;28;20477;-77
2021/05/06 14:15:49;;;;;;;2.33;1.30;;;;;;;;;;5032350;28;20472;-81
2021/05/06 14:18:16;;;;;;;1.67;1.57;;;;;;;;;;5033087;28;20427;-78
2021/05/06 14:20:42;;;;;;;1.50;1.40;;;;;;;;;;5033082;28;20748;-77
2021/05/06 14:23:09;;;;;;;0.90;0.90;;;;;;;;;;5032990;28;20416;-76
2021/05/06 14:25:35;;;;;;;3.23;1.10;;;;;;;;;;5031562;28;20479;-79
2021/05/06 14:28:02;;;;;;;1.00;0.97;;;;;;;;;;5032796;28;20467;-78
2021/05/06 14:30:28;;;;;;;0.80;0.70;;;;;;;;;;5033006;28;20428;-78
2021/05/06 14:32:54;;;;;;;1.30;0.63;;;;;;;;;;5032676;28;20503;-75
2021/05/06 14:35:20;;;;;;;0.80;0.80;;;;;;;;;;5031935;28;21049;-81
2021/05/06 14:37:46;;;;;;;2.33;0.80;;;;;;;;;;5033572;28;20921;-81
2021/05/06 14:40:12;;;;;;;2.30;1.07;;;;;;;;;;5044105;28;20416;-79
2021/05/06 14:42:38;;;;;;;0.80;0.80;;;;;;;;;;5039650;28;20419;-77
2021/05/06 14:45:04;;;;;;;0.90;0.90;;;;;;;;;;5033536;28;20431;-80
2021/05/06 14:47:30;;;;;;;0.83;0.83;;;;;;;;;;5032719;28;20416;-80
2021/05/06 14:49:57;;;;;;;1.50;1.20;;;;;;;;;;5032169;28;20427;-79
2021/05/06 14:52:23;;;;;;;1.40;1.23;;;;;;;;;;5032540;28;20431;-78
2021/05/06 14:54:49;;;;;;;1.40;0.87;;;;;;;;;;5032253;28;20561;-80
2021/05/06 15:00:21;;;;;;;1.17;1.07;;;;;;;;;;5032422;28;20410;-80
2021/05/06 15:02:47;;;;;;;2.23;0.77;;;;;;;;;;5032918;28;20420;-79
2021/05/06 15:05:14;;;;;;;0.80;0.80;;;;;;;;;;5033597;28;20411;-80
2021/05/06 15:07:40;;;;;;;0.97;0.87;;;;;;;;;;5034167;28;20434;-78
2021/05/06 15:10:07;;;;;;;1.47;0.87;;;;;;;;;;5031408;28;20899;-75
2021/05/06 15:12:35;;;;;;;0.80;0.80;;;;;;;;;;5032789;28;20416;-73
2021/05/06 15:15:01;;;;;;;2.43;0.90;;;;;;;;;;5032675;28;20539;-80
2021/05/06 15:17:27;;;;;;;1.40;1.07;;;;;;;;;;5032674;28;20416;-79
2021/05/06 15:19:53;;;;;;;0.80;0.80;;;;;;;;;;5032678;28;20589;-75
2021/05/06 15:22:20;;;;;;;1.23;1.10;;;;;;;;;;5031801;28;20466;-78
2021/05/06 15:24:46;;;;;;;1.37;1.27;;;;;;;;;;5032390;28;20416;-76
2021/05/06 15:30:17;;;;;;;1.40;1.03;;;;;;;;;;5032352;28;20843;-81
2021/05/06 15:32:43;;;;;;;1.80;1.23;;;;;;;;;;5032514;28;20416;-80
2021/05/06 15:35:09;;;;;;;1.37;1.10;;;;;;;;;;5026362;28;20483;-75
2021/05/06 15:37:36;;;;;;;1.13;1.03;;;;;;;;;;5031271;28;20430;-75
2021/05/06 15:40:02;;;;;;;1.57;1.20;;;;;;;;;;5030901;28;20405;-74
2021/05/06 15:45:31;;;;;;;4.77;1.00;;;;;;;;;;5031794;28;20454;-75
2021/05/06 15:47:57;;;;;;;1.20;1.10;;;;;;;;;;5031657;28;20425;-75
2021/05/06 15:50:24;;;;;;;1.00;0.90;;;;;;;;;;5029883;28;20424;-76
2021/05/06 15:52:50;;;;;;;1.53;1.23;;;;;;;;;;5030449;28;20767;-76
2021/05/06 15:55:16;;;;;;;2.77;1.33;;;;;;;;;;5031266;28;20825;-76
2021/05/06 16:00:46;;;;;;;2.23;1.53;;;;;;;;;;5030956;28;20422;-76
2021/05/06 16:03:15;;;;;;;2.10;1.60;;;;;;;;;;5030855;28;20412;-76
2021/05/06 16:05:49;;;;;;;1.70;1.47;;;;;;;;;;5030766;28;20455;-76
2021/05/06 16:08:16;;;;;;;2.10;1.60;;;;;;;;;;5030825;28;20411;-75
2021/05/06 16:10:42;;;;;;;1.77;1.67;;;;;;;;;;5031086;28;20432;-75
2021/05/06 16:13:08;;;;;;;1.30;0.80;;;;;;;;;;5031349;28;20485;-75
2021/05/06 16:15:34;;;;;;;1.73;1.50;;;;;;;;;;5030759;28;20558;-77
2021/05/06 16:18:00;;;;;;;2.00;1.77;;;;;;;;;;5029645;28;20423;-76
2021/05/06 16:20:39;;;;;;;1.90;1.80;;;;;;;;;;5029790;28;20436;-76
2021/05/06 16:23:06;;;;;;;1.40;1.20;;;;;;;;;;5031144;28;20420;-76
2021/05/06 16:25:32;;;;;;;1.73;1.40;;;;;;;;;;5031016;28;20429;-77
2021/05/06 16:27:58;;;;;;;2.15;1.70;;;;;;;;;;5030012;28;20880;-80
2021/05/06 16:30:26;;;;;;;1.60;1.50;;;;;;;;;;5033370;28;20651;-80
2021/05/06 16:32:57;;;;;;;1.73;0.90;;;;;;;;;;5036566;28;20411;-77
2021/05/06 16:35:26;;;;;;;1.33;1.23;;;;;;;;;;5031847;28;20557;-77
2021/05/06 16:38:01;;;;;;;3.10;1.43;;;;;;;;;;5031429;28;20463;-77
2021/05/06 16:40:44;;;;;;;1.80;1.40;;;;;;;;;;5031000;28;20415;-78
2021/05/06 16:46:15;;;;;;;1.80;1.70;;;;;;;;;;5030715;28;20471;-76
2021/05/06 16:48:42;;;;;;;2.93;2.00;;;;;;;;;;5030680;28;20420;-77
2021/05/06 16:51:08;;;;;;;2.47;2.10;;;;;;;;;;5031570;28;20427;-76
2021/05/06 16:53:35;;;;;;;1.33;1.23;;;;;;;;;;5034658;28;20435;-77
2021/05/06 16:56:01;;;;;;;1.90;1.23;;;;;;;;;;5034051;28;20977;-76
2021/05/06 16:58:27;;;;;;;1.67;1.57;;;;;;;;;;5034429;28;20416;-76
2021/05/06 17:00:54;;;;;;;1.90;1.80;;;;;;;;;;5033583;28;21020;-81
2021/05/06 17:03:20;;;;;;;4.20;1.87;;;;;;;;;;5034103;28;20412;-79
2021/05/06 17:05:46;;;;;;;1.93;1.83;;;;;;;;;;5034015;28;20412;-76
2021/05/06 17:08:13;;;;;;;1.73;1.33;;;;;;;;;;5034510;28;20423;-79
2021/05/06 17:10:39;;;;;;;2.90;1.87;;;;;;;;;;5035156;28;20839;-76
2021/05/06 17:16:08;;;;;;;2.03;1.70;;;;;;;;;;5035647;28;20482;-80
2021/05/06 17:18:37;;;;;;;1.40;1.30;;;;;;;;;;5035321;28;20470;-77
2021/05/06 17:21:04;;;;;;;2.70;1.37;;;;;;;;;;5035911;28;20503;-79
2021/05/06 17:23:30;;;;;;;1.43;1.33;;;;;;;;;;5035929;28;20427;-75
2021/05/06 17:25:56;;;;;;;2.40;2.20;;;;;;;;;;5036091;28;20430;-79
2021/05/06 17:28:22;;;;;;;3.47;2.30;;;;;;;;;;5034971;28;20432;-79
2021/05/06 17:30:51;;;;;;;1.27;1.27;;;;;;;;;;5035371;28;20470;-82
2021/05/06 17:33:17;;;;;;;2.10;1.60;;;;;;;;;;5035041;28;20413;-76
2021/05/06 17:35:43;;;;;;;2.40;1.67;;;;;;;;;;5034856;28;20550;-76
2021/05/06 17:38:09;;;;;;;3.03;1.70;;;;;;;;;;5035338;28;20412;-75
2021/05/06 17:40:35;;;;;;;1.40;1.27;;;;;;;;;;5035537;28;20430;-77
2021/05/06 17:46:04;;;;;;;1.70;1.53;;;;;;;;;;5034731;28;20411;-77
2021/05/06 17:48:33;;;;;;;2.70;2.00;;;;;;;;;;5034901;28;20416;-77
2021/05/06 17:50:59;;;;;;;1.50;1.40;;;;;;;;;;5033845;28;20748;-77
2021/05/06 17:53:25;;;;;;;3.07;2.20;;;;;;;;;;5035040;28;20776;-77
2021/05/06 17:55:51;;;;;;;1.40;1.20;;;;;;;;;;5033505;28;20498;-76
2021/05/06 18:01:22;;;;;;;1.37;1.27;;;;;;;;;;5034617;28;20443;-79
2021/05/06 18:03:48;;;;;;;1.37;1.10;;;;;;;;;;5033409;28;20417;-80
2021/05/06 18:06:15;;;;;;;2.57;1.10;;;;;;;;;;5033019;28;20439;-82
2021/05/06 18:08:46;;;;;;;2.17;1.27;;;;;;;;;;5032051;28;20416;-80
2021/05/06 18:13:54;;;;;;;1.97;1.73;;;;;;;;;;5033247;28;20412;-79
2021/05/06 18:16:21;;;;;;;1.87;1.70;;;;;;;;;;5031671;28;20476;-79
2021/05/06 18:18:47;;;;;;;1.40;1.30;;;;;;;;;;5032799;28;20465;-79
2021/05/06 18:21:13;;;;;;;2.63;1.27;;;;;;;;;;5032002;28;20852;-82
2021/05/06 18:23:39;;;;;;;1.33;1.23;;;;;;;;;;5034531;28;20905;-78
2021/05/06 18:26:05;;;;;;;2.13;0.90;;;;;;;;;;5042701;28;20424;-78
2021/05/06 18:31:35;;;;;;;1.60;1.37;;;;;;;;;;5033148;28;20458;-80
2021/05/06 18:34:01;;;;;;;1.20;1.10;;;;;;;;;;5032512;28;20427;-79
2021/05/06 18:36:27;;;;;;;1.10;0.93;;;;;;;;;;5032711;28;20494;-80
2021/05/06 18:38:53;;;;;;;1.53;1.10;;;;;;;;;;5034593;28;20448;-74
2021/05/06 18:41:20;;;;;;;1.20;1.10;;;;;;;;;;5036285;28;20410;-81
2021/05/06 18:43:46;;;;;;;2.80;1.80;;;;;;;;;;5032883;28;20167;-80
2021/05/06 18:46:12;;;;;;;2.17;1.97;;;;;;;;;;5031938;28;20787;-77
2021/05/06 18:48:38;;;;;;;1.47;1.30;;;;;;;;;;5032070;28;20499;-77
2021/05/06 18:51:05;;;;;;;1.37;1.27;;;;;;;;;;5030738;28;20433;-78
2021/05/06 18:53:31;;;;;;;1.50;1.30;;;;;;;;;;5030812;28;20758;-76
2021/05/06 18:55:57;;;;;;;1.40;1.17;;;;;;;;;;5032526;28;20236;-78
2021/05/06 19:01:26;;;;;;;2.37;1.17;;;;;;;;;;5032419;28;21004;-76
2021/05/06 19:03:52;;;;;;;1.27;1.17;;;;;;;;;;5032906;28;20427;-79
2021/05/06 19:06:18;;;;;;;1.17;0.90;;;;;;;;;;5030719;28;20793;-75
2021/05/06 19:08:45;;;;;;;0.70;0.70;;;;;;;;;;5032322;28;20427;-77
2021/05/06 19:11:13;;;;;;;1.00;1.00;;;;;;;;;;5032196;28;20750;-79
2021/05/06 19:16:43;;;;;;;1.00;0.87;;;;;;;;;;5031481;28;21040;-75
2021/05/06 19:19:09;;;;;;;1.10;1.00;;;;;;;;;;5031696;28;20432;-76
2021/05/06 19:21:35;;;;;;;0.67;0.67;;;;;;;;;;5031782;28;20456;-74
2021/05/06 19:24:04;;;;;;;1.40;0.83;;;;;;;;;;5031906;28;20439;-77
2021/05/06 19:26:31;;;;;;;1.10;1.10;;;;;;;;;;5031994;28;20439;-80
2021/05/06 19:32:00;;;;;;;2.13;1.50;;;;;;;;;;5031463;28;20422;-77
2021/05/06 19:34:27;;;;;;;1.47;1.10;;;;;;;;;;5031043;28;20479;-79
2021/05/06 19:36:54;;;;;;;1.23;1.10;;;;;;;;;;5031590;28;20428;-80